Time,TemperatureF,DewpointF,PressureIn,WindDirection,WindDirectionDegrees,WindSpeedMPH,WindSpeedGustMPH,Humidity,HourlyPrecipIn,Conditions,Clouds,dailyrainin,SoftwareType,DateUTC
2013-05-14 00:01:00,62.6,29.1,29.88,SSE,158,0.0,0.0,28,0.00,,,0.00,meteobridge,2013-05-14 06:01:00,
2013-05-14 00:06:00,62.1,29.5,29.88,SSE,158,0.0,0.0,29,0.00,,,0.00,meteobridge,2013-05-14 06:06:00,
2013-05-14 00:12:00,61.5,29.8,29.88,SSE,158,0.0,0.0,30,0.00,,,0.00,meteobridge,2013-05-14 06:12:00,
2013-05-14 00:17:00,61.5,29.8,29.88,SSE,158,0.0,0.0,30,0.00,,,0.00,meteobridge,2013-05-14 06:17:00,
2013-05-14 00:22:00,61.9,30.0,29.88,SSE,158,0.0,0.0,30,0.00,,,0.00,meteobridge,2013-05-14 06:22:00,
2013-05-14 00:27:00,61.2,30.2,29.87,SSE,158,0.0,0.9,31,0.00,,,0.00,meteobridge,2013-05-14 06:27:00,
2013-05-14 00:32:00,60.4,30.4,29.87,SSE,158,0.0,0.0,32,0.00,,,0.00,meteobridge,2013-05-14 06:32:00,
2013-05-14 00:38:00,60.1,30.2,29.88,SSE,158,0.0,0.0,32,0.00,,,0.00,meteobridge,2013-05-14 06:38:00,
2013-05-14 00:43:00,60.1,30.2,29.88,SSE,158,0.0,0.9,32,0.00,,,0.00,meteobridge,2013-05-14 06:43:00,
2013-05-14 00:48:00,60.3,30.2,29.87,SSE,158,0.0,0.9,32,0.00,,,0.00,meteobridge,2013-05-14 06:48:00,
2013-05-14 00:54:00,60.1,30.2,29.87,SSE,158,0.0,2.0,32,0.00,,,0.00,meteobridge,2013-05-14 06:54:00,
2013-05-14 00:59:00,60.1,29.3,29.87,SSE,158,0.0,0.0,31,0.00,,,0.00,meteobridge,2013-05-14 06:59:00,
2013-05-14 01:04:00,60.1,29.3,29.87,SSE,158,0.0,0.0,31,0.00,,,0.00,meteobridge,2013-05-14 07:04:00,
2013-05-14 01:09:00,60.4,28.0,29.87,SSE,158,0.0,0.9,29,0.00,,,0.00,meteobridge,2013-05-14 07:09:00,
2013-05-14 01:14:00,60.6,27.3,29.87,SSE,158,0.0,0.9,28,0.00,,,0.00,meteobridge,2013-05-14 07:14:00,
2013-05-14 01:19:00,61.3,27.1,29.87,NE,54,0.0,0.0,27,0.00,,,0.00,meteobridge,2013-05-14 07:19:00,
2013-05-14 01:24:00,61.5,26.2,29.87,NE,54,0.0,0.9,26,0.00,,,0.00,meteobridge,2013-05-14 07:24:00,
2013-05-14 01:30:00,61.5,26.2,29.87,ENE,63,0.0,0.0,26,0.00,,,0.00,meteobridge,2013-05-14 07:30:00,
2013-05-14 01:35:00,61.5,26.2,29.87,ENE,63,0.0,2.0,26,0.00,,,0.00,meteobridge,2013-05-14 07:35:00,
2013-05-14 01:40:00,61.2,27.0,29.87,ENE,63,0.0,0.0,27,0.00,,,0.00,meteobridge,2013-05-14 07:40:00,
2013-05-14 01:45:00,60.6,27.3,29.88,ENE,63,0.0,0.9,28,0.00,,,0.00,meteobridge,2013-05-14 07:45:00,
2013-05-14 01:50:00,60.1,27.7,29.88,ENE,63,0.9,0.9,29,0.00,,,0.00,meteobridge,2013-05-14 07:50:00,
2013-05-14 01:55:00,59.5,28.0,29.88,ENE,63,0.0,0.0,30,0.00,,,0.00,meteobridge,2013-05-14 07:55:00,
2013-05-14 02:00:00,59.2,27.7,29.88,ENE,63,0.0,0.9,30,0.00,,,0.00,meteobridge,2013-05-14 08:00:00,
2013-05-14 02:05:00,58.6,28.0,29.88,ENE,63,0.0,0.0,31,0.00,,,0.00,meteobridge,2013-05-14 08:05:00,
2013-05-14 02:10:00,58.3,27.9,29.88,ENE,63,0.0,0.0,31,0.00,,,0.00,meteobridge,2013-05-14 08:10:00,
2013-05-14 02:15:00,58.3,27.9,29.88,ENE,63,0.0,0.0,31,0.00,,,0.00,meteobridge,2013-05-14 08:15:00,
2013-05-14 02:20:00,57.7,28.0,29.88,ENE,63,0.0,0.0,32,0.00,,,0.00,meteobridge,2013-05-14 08:20:00,
2013-05-14 02:26:00,57.6,27.9,29.88,ENE,63,0.0,0.0,32,0.00,,,0.00,meteobridge,2013-05-14 08:26:00,
2013-05-14 02:31:00,57.0,27.5,29.88,ENE,63,0.9,0.9,32,0.00,,,0.00,meteobridge,2013-05-14 08:31:00,
2013-05-14 02:36:00,57.7,28.0,29.88,ENE,63,0.0,0.0,32,0.00,,,0.00,meteobridge,2013-05-14 08:36:00,
2013-05-14 02:41:00,57.6,27.9,29.88,ENE,63,0.0,0.0,32,0.00,,,0.00,meteobridge,2013-05-14 08:41:00,
2013-05-14 02:46:00,56.8,28.0,29.88,ENE,63,0.0,0.0,33,0.00,,,0.00,meteobridge,2013-05-14 08:46:00,
2013-05-14 02:52:00,56.3,28.2,29.88,ENE,63,0.0,0.0,34,0.00,,,0.00,meteobridge,2013-05-14 08:52:00,
2013-05-14 02:57:00,55.9,28.0,29.88,ENE,63,0.9,0.9,34,0.00,,,0.00,meteobridge,2013-05-14 08:57:00,
2013-05-14 03:02:00,55.8,27.9,29.88,ENE,63,0.0,0.0,34,0.00,,,0.00,meteobridge,2013-05-14 09:02:00,
2013-05-14 03:07:00,55.9,28.0,29.88,ENE,63,0.0,0.0,34,0.00,,,0.00,meteobridge,2013-05-14 09:07:00,
2013-05-14 03:12:00,55.9,27.3,29.88,ENE,63,0.0,0.9,33,0.00,,,0.00,meteobridge,2013-05-14 09:12:00,
2013-05-14 03:17:00,55.8,27.1,29.88,ENE,63,0.0,0.9,33,0.00,,,0.00,meteobridge,2013-05-14 09:17:00,
2013-05-14 03:22:00,55.8,26.4,29.88,ENE,63,0.0,0.9,32,0.00,,,0.00,meteobridge,2013-05-14 09:22:00,
2013-05-14 03:27:00,55.9,25.0,29.87,ENE,63,0.9,2.0,30,0.00,,,0.00,meteobridge,2013-05-14 09:27:00,
2013-05-14 03:32:00,57.4,22.8,29.87,East,90,0.9,0.9,26,0.00,,,0.00,meteobridge,2013-05-14 09:32:00,
2013-05-14 03:37:00,57.7,23.0,29.87,East,90,0.0,0.9,26,0.00,,,0.00,meteobridge,2013-05-14 09:37:00,
2013-05-14 03:42:00,58.5,21.7,29.87,East,90,0.9,2.0,24,0.00,,,0.00,meteobridge,2013-05-14 09:42:00,
2013-05-14 03:47:00,59.0,21.2,29.88,ESE,117,0.0,0.9,23,0.00,,,0.00,meteobridge,2013-05-14 09:47:00,
2013-05-14 03:52:00,58.5,21.7,29.88,ESE,117,0.0,0.0,24,0.00,,,0.00,meteobridge,2013-05-14 09:52:00,
2013-05-14 03:57:00,58.5,20.8,29.88,ESE,117,0.0,0.0,23,0.00,,,0.00,meteobridge,2013-05-14 09:57:00,
2013-05-14 04:03:00,58.3,20.7,29.88,ESE,117,0.0,0.9,23,0.00,,,0.00,meteobridge,2013-05-14 10:03:00,
2013-05-14 04:08:00,57.9,21.4,29.87,ESE,117,0.0,0.0,24,0.00,,,0.00,meteobridge,2013-05-14 10:08:00,
2013-05-14 04:13:00,57.2,21.7,29.87,ESE,117,0.0,0.0,25,0.00,,,0.00,meteobridge,2013-05-14 10:13:00,
2013-05-14 04:18:00,56.8,20.5,29.87,ESE,117,0.0,0.0,24,0.00,,,0.00,meteobridge,2013-05-14 10:18:00,
2013-05-14 04:23:00,56.7,20.3,29.87,ESE,117,0.0,0.0,24,0.00,,,0.00,meteobridge,2013-05-14 10:23:00,
2013-05-14 04:28:00,56.7,21.2,29.87,ESE,117,0.0,0.0,25,0.00,,,0.00,meteobridge,2013-05-14 10:28:00,
2013-05-14 04:33:00,56.1,19.8,29.86,ESE,117,0.0,0.9,24,0.00,,,0.00,meteobridge,2013-05-14 10:33:00,
2013-05-14 04:38:00,56.1,19.8,29.86,ESE,117,0.0,0.0,24,0.00,,,0.00,meteobridge,2013-05-14 10:38:00,
2013-05-14 04:43:00,56.8,18.3,29.86,SE,142,0.9,0.9,22,0.00,,,0.00,meteobridge,2013-05-14 10:43:00,
2013-05-14 04:48:00,57.4,17.8,29.86,SE,140,0.9,2.0,21,0.00,,,0.00,meteobridge,2013-05-14 10:48:00,
2013-05-14 04:54:00,57.7,16.9,29.87,SE,140,0.0,0.9,20,0.00,,,0.00,meteobridge,2013-05-14 10:54:00,
2013-05-14 04:59:00,57.9,15.8,29.86,SE,142,2.0,2.0,19,0.00,,,0.00,meteobridge,2013-05-14 10:59:00,
2013-05-14 05:04:00,58.1,16.0,29.86,SE,142,0.0,2.0,19,0.00,,,0.00,meteobridge,2013-05-14 11:04:00,
2013-05-14 05:09:00,58.3,14.9,29.86,SE,142,0.0,0.9,18,0.00,,,0.00,meteobridge,2013-05-14 11:09:00,
2013-05-14 05:14:00,57.7,15.8,29.86,SE,142,0.0,0.9,19,0.00,,,0.00,meteobridge,2013-05-14 11:14:00,
2013-05-14 05:20:00,57.4,15.4,29.86,SE,142,0.9,0.9,19,0.00,,,0.00,meteobridge,2013-05-14 11:20:00,
2013-05-14 05:25:00,57.0,16.3,29.87,SE,142,0.0,0.0,20,0.00,,,0.00,meteobridge,2013-05-14 11:25:00,
2013-05-14 05:30:00,55.9,18.7,29.86,SE,142,0.0,0.0,23,0.00,,,0.00,meteobridge,2013-05-14 11:30:00,
2013-05-14 05:36:00,55.2,18.1,29.86,SE,142,0.0,0.0,23,0.00,,,0.00,meteobridge,2013-05-14 11:36:00,
2013-05-14 05:41:00,54.9,17.8,29.86,SE,142,0.0,0.0,23,0.00,,,0.00,meteobridge,2013-05-14 11:41:00,
2013-05-14 05:46:00,54.3,18.3,29.86,SE,142,0.0,0.0,24,0.00,,,0.00,meteobridge,2013-05-14 11:46:00,
2013-05-14 05:51:00,54.0,18.9,29.87,SE,142,0.0,0.0,25,0.00,,,0.00,meteobridge,2013-05-14 11:51:00,
2013-05-14 05:56:00,54.1,18.1,29.87,SE,142,0.0,0.0,24,0.00,,,0.00,meteobridge,2013-05-14 11:56:00,
2013-05-14 06:02:00,54.1,19.0,29.87,SE,142,0.0,0.0,25,0.00,,,0.00,meteobridge,2013-05-14 12:02:00,
2013-05-14 06:07:00,54.1,19.9,29.87,SE,142,0.0,0.0,26,0.00,,,0.00,meteobridge,2013-05-14 12:07:00,
2013-05-14 06:12:00,53.6,19.6,29.87,SE,142,0.0,0.0,26,0.00,,,0.00,meteobridge,2013-05-14 12:12:00,
2013-05-14 06:17:00,53.4,21.2,29.87,SE,142,0.0,0.0,28,0.00,,,0.00,meteobridge,2013-05-14 12:17:00,
2013-05-14 06:22:00,53.1,20.8,29.87,SE,142,0.0,0.0,28,0.00,,,0.00,meteobridge,2013-05-14 12:22:00,
2013-05-14 06:27:00,53.2,22.6,29.88,SE,142,0.0,0.0,30,0.00,,,0.00,meteobridge,2013-05-14 12:27:00,
2013-05-14 06:33:00,53.2,20.1,29.88,SE,142,0.0,0.0,27,0.00,,,0.00,meteobridge,2013-05-14 12:33:00,
2013-05-14 06:38:00,53.2,27.7,29.88,SE,142,0.0,0.0,37,0.00,,,0.00,meteobridge,2013-05-14 12:38:00,
2013-05-14 06:43:00,53.2,22.6,29.88,SE,142,0.0,0.0,30,0.00,,,0.00,meteobridge,2013-05-14 12:43:00,
2013-05-14 06:48:00,53.8,22.3,29.88,SE,142,0.0,0.0,29,0.00,,,0.00,meteobridge,2013-05-14 12:48:00,
2013-05-14 06:53:00,54.3,21.9,29.88,SE,142,0.0,0.0,28,0.00,,,0.00,meteobridge,2013-05-14 12:53:00,
2013-05-14 06:58:00,55.0,25.0,29.88,SE,142,0.0,0.0,31,0.00,,,0.00,meteobridge,2013-05-14 12:58:00,
2013-05-14 07:04:00,55.8,24.8,29.88,SE,142,0.0,0.0,30,0.00,,,0.00,meteobridge,2013-05-14 13:04:00,
2013-05-14 07:09:00,56.5,22.8,29.89,SE,142,0.0,0.0,27,0.00,,,0.00,meteobridge,2013-05-14 13:09:00,
2013-05-14 07:14:00,57.0,24.3,29.89,SE,142,0.0,0.0,28,0.00,,,0.00,meteobridge,2013-05-14 13:14:00,
2013-05-14 07:19:00,57.6,23.9,29.89,SE,142,0.0,0.0,27,0.00,,,0.00,meteobridge,2013-05-14 13:19:00,
2013-05-14 07:24:00,57.9,24.1,29.89,SE,142,0.0,0.0,27,0.00,,,0.00,meteobridge,2013-05-14 13:24:00,
2013-05-14 07:29:00,58.8,24.1,29.89,SE,142,0.0,0.0,26,0.00,,,0.00,meteobridge,2013-05-14 13:29:00,
2013-05-14 07:34:00,59.2,25.2,29.89,SE,142,0.0,0.0,27,0.00,,,0.00,meteobridge,2013-05-14 13:34:00,
2013-05-14 07:39:00,59.9,23.9,29.90,SE,142,0.0,0.9,25,0.00,,,0.00,meteobridge,2013-05-14 13:39:00,
2013-05-14 07:45:00,61.2,23.0,29.90,SE,142,0.0,0.0,23,0.00,,,0.00,meteobridge,2013-05-14 13:45:00,
2013-05-14 07:50:00,61.9,23.7,29.89,SE,142,0.0,0.9,23,0.00,,,0.00,meteobridge,2013-05-14 13:50:00,
2013-05-14 07:55:00,62.6,24.3,29.89,SE,142,0.0,0.9,23,0.00,,,0.00,meteobridge,2013-05-14 13:55:00,
2013-05-14 08:00:00,63.3,21.6,29.89,SE,142,0.0,2.0,20,0.00,,,0.00,meteobridge,2013-05-14 14:00:00,
2013-05-14 08:05:00,63.9,20.8,29.89,SE,142,0.0,0.9,19,0.00,,,0.00,meteobridge,2013-05-14 14:05:00,
2013-05-14 08:10:00,63.9,23.2,29.89,SE,142,0.0,0.0,21,0.00,,,0.00,meteobridge,2013-05-14 14:10:00,
2013-05-14 08:16:00,64.2,19.8,29.89,SE,142,0.0,0.0,18,0.00,,,0.00,meteobridge,2013-05-14 14:16:00,
2013-05-14 08:21:00,64.6,20.1,29.89,SE,142,0.0,0.9,18,0.00,,,0.00,meteobridge,2013-05-14 14:21:00,
2013-05-14 08:26:00,65.1,21.7,29.89,SSE,153,2.0,4.0,19,0.00,,,0.00,meteobridge,2013-05-14 14:26:00,
2013-05-14 08:31:00,65.7,22.3,29.89,South,173,0.9,4.9,19,0.00,,,0.00,meteobridge,2013-05-14 14:31:00,
2013-05-14 08:36:00,66.0,21.2,29.89,SSE,147,4.0,4.0,18,0.00,,,0.00,meteobridge,2013-05-14 14:36:00,
2013-05-14 08:41:00,66.2,21.4,29.89,SSW,196,0.0,4.0,18,0.00,,,0.00,meteobridge,2013-05-14 14:41:00,
2013-05-14 08:46:00,66.6,21.7,29.89,SSE,159,0.0,4.9,18,0.00,,,0.00,meteobridge,2013-05-14 14:46:00,
2013-05-14 08:51:00,66.7,20.5,29.89,SSE,149,2.9,8.1,17,0.00,,,0.00,meteobridge,2013-05-14 14:51:00,
2013-05-14 08:56:00,66.9,20.7,29.89,SE,127,4.9,4.9,17,0.00,,,0.00,meteobridge,2013-05-14 14:56:00,
2013-05-14 09:01:00,67.3,21.0,29.89,SSE,162,0.9,6.0,17,0.00,,,0.00,meteobridge,2013-05-14 15:01:00,
2013-05-14 09:06:00,67.5,21.2,29.89,SE,124,4.0,4.9,17,0.00,,,0.00,meteobridge,2013-05-14 15:06:00,
2013-05-14 09:11:00,67.8,21.4,29.88,SSW,213,4.0,4.9,17,0.00,,,0.00,meteobridge,2013-05-14 15:11:00,
2013-05-14 09:16:00,68.5,23.4,29.89,South,186,2.0,2.9,18,0.00,,,0.00,meteobridge,2013-05-14 15:16:00,
2013-05-14 09:21:00,69.3,21.2,29.88,WSW,246,2.0,6.0,16,0.00,,,0.00,meteobridge,2013-05-14 15:21:00,
2013-05-14 09:26:00,69.1,21.0,29.88,SSW,205,2.9,6.0,16,0.00,,,0.00,meteobridge,2013-05-14 15:26:00,
2013-05-14 09:31:00,69.4,21.2,29.88,WSW,240,6.0,8.1,16,0.00,,,0.00,meteobridge,2013-05-14 15:31:00,
2013-05-14 09:36:00,69.1,21.0,29.88,SSW,209,4.0,10.1,16,0.00,,,0.00,meteobridge,2013-05-14 15:36:00,
2013-05-14 09:41:00,69.4,22.6,29.87,SSE,166,2.9,8.1,17,0.00,,,0.00,meteobridge,2013-05-14 15:41:00,
2013-05-14 09:46:00,70.2,20.3,29.87,SSW,208,2.0,8.1,15,0.00,,,0.00,meteobridge,2013-05-14 15:46:00,
2013-05-14 09:51:00,70.0,21.7,29.87,SE,130,6.0,8.1,16,0.00,,,0.00,meteobridge,2013-05-14 15:51:00,
2013-05-14 09:56:00,70.3,20.5,29.87,SE,134,4.9,4.9,15,0.00,,,0.00,meteobridge,2013-05-14 15:56:00,
2013-05-14 10:01:00,71.1,21.0,29.87,West,270,4.9,6.9,15,0.00,,,0.00,meteobridge,2013-05-14 16:01:00,
2013-05-14 10:07:00,70.5,20.7,29.87,SW,236,4.9,4.9,15,0.00,,,0.00,meteobridge,2013-05-14 16:07:00,
2013-05-14 10:12:00,71.2,21.2,29.87,SE,142,4.0,8.9,15,0.00,,,0.00,meteobridge,2013-05-14 16:12:00,
2013-05-14 10:17:00,72.0,23.4,29.86,South,180,0.0,6.9,16,0.00,,,0.00,meteobridge,2013-05-14 16:17:00,
2013-05-14 10:22:00,72.1,20.3,29.86,SW,229,6.0,6.9,14,0.00,,,0.00,meteobridge,2013-05-14 16:22:00,
2013-05-14 10:27:00,71.6,21.6,29.86,ESE,112,2.9,6.0,15,0.00,,,0.00,meteobridge,2013-05-14 16:27:00,
2013-05-14 10:32:00,71.4,21.4,29.86,SW,224,4.9,4.9,15,0.00,,,0.00,meteobridge,2013-05-14 16:32:00,
2013-05-14 10:37:00,72.3,20.5,29.85,SSE,162,2.9,6.0,14,0.00,,,0.00,meteobridge,2013-05-14 16:37:00,
2013-05-14 10:42:00,72.9,20.8,29.85,SSE,168,2.9,6.0,14,0.00,,,0.00,meteobridge,2013-05-14 16:42:00,
2013-05-14 10:47:00,73.2,21.2,29.85,SSW,201,4.9,6.0,14,0.00,,,0.00,meteobridge,2013-05-14 16:47:00,
2013-05-14 10:52:00,73.6,21.4,29.85,West,265,2.0,6.9,14,0.00,,,0.00,meteobridge,2013-05-14 16:52:00,
2013-05-14 10:57:00,74.3,22.1,29.84,SSW,200,2.0,4.0,14,0.00,,,0.00,meteobridge,2013-05-14 16:57:00,
2013-05-14 11:02:00,74.3,20.3,29.84,SW,217,2.9,4.9,13,0.00,,,0.00,meteobridge,2013-05-14 17:02:00,
2013-05-14 11:07:00,74.5,22.1,29.84,West,271,2.0,4.9,14,0.00,,,0.00,meteobridge,2013-05-14 17:07:00,
2013-05-14 11:12:00,75.6,19.4,29.83,South,190,0.9,6.0,12,0.00,,,0.00,meteobridge,2013-05-14 17:12:00,
2013-05-14 11:17:00,76.6,22.1,29.83,South,178,2.9,2.9,13,0.00,,,0.00,meteobridge,2013-05-14 17:17:00,
2013-05-14 11:22:00,76.6,20.3,29.83,SSW,196,2.9,8.1,12,0.00,,,0.00,meteobridge,2013-05-14 17:22:00,
2013-05-14 11:27:00,76.1,19.8,29.83,South,175,2.0,6.9,12,0.00,,,0.00,meteobridge,2013-05-14 17:27:00,
2013-05-14 11:32:00,76.8,20.3,29.82,SSE,161,4.9,8.1,12,0.00,,,0.00,meteobridge,2013-05-14 17:32:00,
2013-05-14 11:37:00,76.8,22.3,29.82,South,186,4.0,6.0,13,0.00,,,0.00,meteobridge,2013-05-14 17:37:00,
2013-05-14 11:42:00,76.6,22.1,29.82,SW,217,2.9,10.1,13,0.00,,,0.00,meteobridge,2013-05-14 17:42:00,
2013-05-14 11:47:00,77.7,23.0,29.81,SSE,164,4.9,6.0,13,0.00,,,0.00,meteobridge,2013-05-14 17:47:00,
2013-05-14 11:52:00,77.5,22.8,29.81,SW,236,2.0,4.9,13,0.00,,,0.00,meteobridge,2013-05-14 17:52:00,
2013-05-14 11:57:00,79.2,24.1,29.80,South,187,4.0,6.9,13,0.00,,,0.00,meteobridge,2013-05-14 17:57:00,
2013-05-14 12:02:00,78.6,21.7,29.80,WSW,238,0.0,4.9,12,0.00,,,0.00,meteobridge,2013-05-14 18:02:00,
2013-05-14 12:07:00,79.9,22.8,29.80,SSE,161,0.9,4.9,12,0.00,,,0.00,meteobridge,2013-05-14 18:07:00,
2013-05-14 12:12:00,79.9,24.6,29.80,South,186,0.0,2.9,13,0.00,,,0.00,meteobridge,2013-05-14 18:12:00,
2013-05-14 12:17:00,79.5,22.5,29.80,SSE,154,2.9,6.0,12,0.00,,,0.00,meteobridge,2013-05-14 18:17:00,
2013-05-14 12:23:00,78.6,23.7,29.79,SE,139,0.0,2.9,13,0.00,,,0.00,meteobridge,2013-05-14 18:23:00,
2013-05-14 12:28:00,79.5,26.1,29.79,SSW,194,4.0,4.9,14,0.00,,,0.00,meteobridge,2013-05-14 18:28:00,
2013-05-14 12:33:00,79.0,23.9,29.79,SSW,205,2.9,6.0,13,0.00,,,0.00,meteobridge,2013-05-14 18:33:00,
2013-05-14 12:38:00,79.0,25.7,29.78,SW,221,0.9,4.0,14,0.00,,,0.00,meteobridge,2013-05-14 18:38:00,
2013-05-14 12:43:00,80.6,25.2,29.78,SW,230,0.9,2.9,13,0.00,,,0.00,meteobridge,2013-05-14 18:43:00,
2013-05-14 12:48:00,80.1,24.8,29.78,WNW,298,0.9,4.9,13,0.00,,,0.00,meteobridge,2013-05-14 18:48:00,
2013-05-14 12:53:00,80.1,24.8,29.77,South,186,2.9,4.0,13,0.00,,,0.00,meteobridge,2013-05-14 18:53:00,
2013-05-14 12:58:00,81.0,23.5,29.77,SW,221,0.0,6.9,12,0.00,,,0.00,meteobridge,2013-05-14 18:58:00,
2013-05-14 13:04:00,80.2,23.0,29.77,NW,323,0.9,4.9,12,0.00,,,0.00,meteobridge,2013-05-14 19:04:00,
2013-05-14 13:09:00,80.2,25.0,29.76,West,259,0.9,2.0,13,0.00,,,0.00,meteobridge,2013-05-14 19:09:00,
2013-05-14 13:14:00,81.7,24.1,29.76,South,173,2.9,4.9,12,0.00,,,0.00,meteobridge,2013-05-14 19:14:00,
2013-05-14 13:19:00,81.9,24.3,29.76,West,261,6.9,8.1,12,0.00,,,0.00,meteobridge,2013-05-14 19:19:00,
2013-05-14 13:24:00,81.7,24.1,29.75,SW,223,8.1,8.1,12,0.00,,,0.00,meteobridge,2013-05-14 19:24:00,
2013-05-14 13:29:00,81.5,24.1,29.75,SW,230,4.0,4.0,12,0.00,,,0.00,meteobridge,2013-05-14 19:29:00,
2013-05-14 13:34:00,81.1,23.7,29.75,SW,230,2.0,6.9,12,0.00,,,0.00,meteobridge,2013-05-14 19:34:00,
2013-05-14 13:39:00,81.9,22.3,29.75,SSW,195,2.9,6.0,11,0.00,,,0.00,meteobridge,2013-05-14 19:39:00,
2013-05-14 13:44:00,82.6,22.8,29.74,SW,226,4.0,8.9,11,0.00,,,0.00,meteobridge,2013-05-14 19:44:00,
2013-05-14 13:49:00,83.5,23.4,29.74,SE,130,6.0,6.9,11,0.00,,,0.00,meteobridge,2013-05-14 19:49:00,
2013-05-14 13:54:00,83.3,25.3,29.73,NW,326,2.9,2.9,12,0.00,,,0.00,meteobridge,2013-05-14 19:54:00,
2013-05-14 13:59:00,81.7,24.1,29.73,SSW,195,4.9,6.0,12,0.00,,,0.00,meteobridge,2013-05-14 19:59:00,
2013-05-14 14:04:00,84.7,24.4,29.72,South,182,2.0,6.9,11,0.00,,,0.00,meteobridge,2013-05-14 20:04:00,
2013-05-14 14:09:00,84.9,22.3,29.72,NNE,19,0.9,4.9,10,0.00,,,0.00,meteobridge,2013-05-14 20:09:00,
2013-05-14 14:14:00,84.2,24.1,29.72,SE,136,6.9,6.9,11,0.00,,,0.00,meteobridge,2013-05-14 20:14:00,
2013-05-14 14:19:00,84.7,22.1,29.72,SSW,211,4.9,6.9,10,0.00,,,0.00,meteobridge,2013-05-14 20:19:00,
2013-05-14 14:24:00,84.6,24.3,29.71,WNW,284,2.0,2.9,11,0.00,,,0.00,meteobridge,2013-05-14 20:24:00,
2013-05-14 14:29:00,85.5,25.0,29.71,ESE,119,8.1,8.1,11,0.00,,,0.00,meteobridge,2013-05-14 20:29:00,
2013-05-14 14:34:00,85.3,22.6,29.71,SSE,155,4.0,8.9,10,0.00,,,0.00,meteobridge,2013-05-14 20:34:00,
2013-05-14 14:39:00,85.6,22.8,29.70,East,90,2.9,4.9,10,0.00,,,0.00,meteobridge,2013-05-14 20:39:00,
2013-05-14 14:44:00,86.7,23.7,29.70,West,260,2.9,6.0,10,0.00,,,0.00,meteobridge,2013-05-14 20:44:00,
2013-05-14 14:49:00,85.1,22.5,29.70,West,268,2.9,4.0,10,0.00,,,0.00,meteobridge,2013-05-14 20:49:00,
2013-05-14 14:54:00,86.2,25.5,29.69,WSW,241,0.9,6.0,11,0.00,,,0.00,meteobridge,2013-05-14 20:54:00,
2013-05-14 14:59:00,86.9,23.7,29.69,SW,217,0.0,4.0,10,0.00,,,0.00,meteobridge,2013-05-14 20:59:00,
2013-05-14 15:04:00,87.4,24.3,29.69,North,9,2.0,6.0,10,0.00,,,0.00,meteobridge,2013-05-14 21:04:00,
2013-05-14 15:09:00,86.2,23.2,29.68,NNE,17,0.9,0.9,10,0.00,,,0.00,meteobridge,2013-05-14 21:09:00,
2013-05-14 15:14:00,86.4,25.7,29.68,WNW,302,2.0,4.9,11,0.00,,,0.00,meteobridge,2013-05-14 21:14:00,
2013-05-14 15:20:00,87.4,21.7,29.67,WSW,250,2.0,2.9,9,0.00,,,0.00,meteobridge,2013-05-14 21:20:00,
2013-05-14 15:25:00,88.0,24.6,29.67,SW,217,8.1,10.1,10,0.00,,,0.00,meteobridge,2013-05-14 21:25:00,
2013-05-14 15:30:00,87.6,26.6,29.67,West,275,0.9,2.9,11,0.00,,,0.00,meteobridge,2013-05-14 21:30:00,
2013-05-14 15:35:00,88.2,22.3,29.67,NW,304,4.0,6.9,9,0.00,,,0.00,meteobridge,2013-05-14 21:35:00,
2013-05-14 15:40:00,88.2,22.3,29.66,West,268,2.9,8.1,9,0.00,,,0.00,meteobridge,2013-05-14 21:40:00,
2013-05-14 15:45:00,87.6,24.3,29.66,North,355,0.9,2.9,10,0.00,,,0.00,meteobridge,2013-05-14 21:45:00,
2013-05-14 15:50:00,86.0,20.7,29.66,SSE,162,0.0,4.0,9,0.00,,,0.00,meteobridge,2013-05-14 21:50:00,
2013-05-14 15:55:00,86.2,23.2,29.65,SE,143,4.0,4.0,10,0.00,,,0.00,meteobridge,2013-05-14 21:55:00,
2013-05-14 16:00:00,86.0,23.2,29.65,SSW,211,2.0,4.0,10,0.00,,,0.00,meteobridge,2013-05-14 22:00:00,
2013-05-14 16:05:00,86.4,25.7,29.65,WNW,286,6.0,6.0,11,0.00,,,0.00,meteobridge,2013-05-14 22:05:00,
2013-05-14 16:10:00,86.4,23.4,29.65,SSW,207,4.0,6.9,10,0.00,,,0.00,meteobridge,2013-05-14 22:10:00,
2013-05-14 16:15:00,85.1,24.6,29.64,South,172,4.0,8.1,11,0.00,,,0.00,meteobridge,2013-05-14 22:15:00,
2013-05-14 16:20:00,85.1,22.5,29.64,South,176,2.9,6.0,10,0.00,,,0.00,meteobridge,2013-05-14 22:20:00,
2013-05-14 16:25:00,84.4,21.9,29.64,SSE,161,0.9,4.0,10,0.00,,,0.00,meteobridge,2013-05-14 22:25:00,
2013-05-14 16:30:00,84.7,22.1,29.64,WSW,250,0.0,4.0,10,0.00,,,0.00,meteobridge,2013-05-14 22:30:00,
2013-05-14 16:35:00,85.5,25.0,29.64,WSW,251,0.9,4.0,11,0.00,,,0.00,meteobridge,2013-05-14 22:35:00,
2013-05-14 16:40:00,86.2,23.2,29.64,WSW,244,0.9,2.9,10,0.00,,,0.00,meteobridge,2013-05-14 22:40:00,
2013-05-14 16:45:00,86.2,23.2,29.63,West,267,2.0,4.0,10,0.00,,,0.00,meteobridge,2013-05-14 22:45:00,
2013-05-14 16:50:00,85.3,22.6,29.63,WSW,240,2.0,4.9,10,0.00,,,0.00,meteobridge,2013-05-14 22:50:00,
2013-05-14 16:55:00,84.7,24.4,29.63,SSW,213,2.9,4.0,11,0.00,,,0.00,meteobridge,2013-05-14 22:55:00,
2013-05-14 17:00:00,85.3,22.6,29.63,SSW,202,4.0,8.1,10,0.00,,,0.00,meteobridge,2013-05-14 23:00:00,
2013-05-14 17:05:00,84.6,24.3,29.63,SW,235,0.0,4.0,11,0.00,,,0.00,meteobridge,2013-05-14 23:05:00,
2013-05-14 17:10:00,84.2,24.1,29.62,South,176,2.9,4.0,11,0.00,,,0.00,meteobridge,2013-05-14 23:10:00,
2013-05-14 17:15:00,83.7,23.5,29.62,NE,40,0.0,2.0,11,0.00,,,0.00,meteobridge,2013-05-14 23:15:00,
2013-05-14 17:20:00,83.5,23.4,29.62,SSW,192,0.0,2.9,11,0.00,,,0.00,meteobridge,2013-05-14 23:20:00,
2013-05-14 17:25:00,83.5,23.4,29.62,South,186,4.9,11.0,11,0.00,,,0.00,meteobridge,2013-05-14 23:25:00,
2013-05-14 17:30:00,83.3,23.4,29.62,NW,317,0.9,4.0,11,0.00,,,0.00,meteobridge,2013-05-14 23:30:00,
2013-05-14 17:36:00,83.1,25.3,29.62,SW,233,2.9,2.9,12,0.00,,,0.00,meteobridge,2013-05-14 23:36:00,
2013-05-14 17:41:00,83.5,25.5,29.62,WNW,293,4.0,6.9,12,0.00,,,0.00,meteobridge,2013-05-14 23:41:00,
2013-05-14 17:46:00,83.5,23.4,29.62,SSW,210,2.0,4.9,11,0.00,,,0.00,meteobridge,2013-05-14 23:46:00,
2013-05-14 17:51:00,83.1,23.2,29.62,SW,229,0.9,4.0,11,0.00,,,0.00,meteobridge,2013-05-14 23:51:00,
2013-05-14 17:56:00,83.5,23.4,29.62,NNE,13,0.0,4.0,11,0.00,,,0.00,meteobridge,2013-05-14 23:56:00,
2013-05-14 18:01:00,83.1,25.3,29.62,WNW,297,2.9,6.0,12,0.00,,,0.00,meteobridge,2013-05-15 00:01:00,
2013-05-14 18:06:00,83.1,27.1,29.62,WSW,254,0.0,8.1,13,0.00,,,0.00,meteobridge,2013-05-15 00:06:00,
2013-05-14 18:11:00,82.8,27.0,29.62,West,279,2.9,6.9,13,0.00,,,0.00,meteobridge,2013-05-15 00:11:00,
2013-05-14 18:16:00,82.8,27.0,29.62,WSW,244,4.0,4.9,13,0.00,,,0.00,meteobridge,2013-05-15 00:16:00,
2013-05-14 18:21:00,82.4,26.6,29.62,WNW,286,6.0,6.9,13,0.00,,,0.00,meteobridge,2013-05-15 00:21:00,
2013-05-14 18:26:00,82.2,26.4,29.62,WNW,302,2.9,8.1,13,0.00,,,0.00,meteobridge,2013-05-15 00:26:00,
2013-05-14 18:31:00,81.9,28.0,29.62,West,264,4.0,6.0,14,0.00,,,0.00,meteobridge,2013-05-15 00:31:00,
2013-05-14 18:36:00,81.5,29.5,29.63,West,275,2.9,10.1,15,0.00,,,0.00,meteobridge,2013-05-15 00:36:00,
2013-05-14 18:41:00,81.1,29.1,29.63,NW,313,2.9,8.1,15,0.00,,,0.00,meteobridge,2013-05-15 00:41:00,
2013-05-14 18:46:00,81.0,27.3,29.63,South,172,0.9,8.9,14,0.00,,,0.00,meteobridge,2013-05-15 00:46:00,
2013-05-14 18:51:00,80.4,30.2,29.64,SW,219,14.1,14.1,16,0.00,,,0.00,meteobridge,2013-05-15 00:51:00,
2013-05-14 18:56:00,80.1,29.8,29.64,WSW,238,2.9,6.0,16,0.00,,,0.00,meteobridge,2013-05-15 00:56:00,
2013-05-14 19:01:00,79.9,31.1,29.65,SSW,207,2.0,6.9,17,0.00,,,0.00,meteobridge,2013-05-15 01:01:00,
2013-05-14 19:06:00,79.3,30.7,29.66,WNW,286,2.9,4.9,17,0.00,,,0.00,meteobridge,2013-05-15 01:06:00,
2013-05-14 19:11:00,79.0,31.8,29.67,SW,224,4.0,8.9,18,0.00,,,0.00,meteobridge,2013-05-15 01:11:00,
2013-05-14 19:16:00,78.1,33.8,29.68,North,10,4.0,14.1,20,0.00,,,0.00,meteobridge,2013-05-15 01:16:00,
2013-05-14 19:21:00,77.0,35.2,29.68,North,11,2.0,8.9,22,0.00,,,0.00,meteobridge,2013-05-15 01:21:00,
2013-05-14 19:26:00,76.5,34.9,29.70,NNW,331,10.1,15.0,22,0.00,,,0.00,meteobridge,2013-05-15 01:26:00,
2013-05-14 19:31:00,75.7,35.2,29.70,NNW,333,2.0,6.0,23,0.00,,,0.00,meteobridge,2013-05-15 01:31:00,
2013-05-14 19:36:00,75.6,36.3,29.70,NW,313,2.9,4.9,24,0.00,,,0.00,meteobridge,2013-05-15 01:36:00,
2013-05-14 19:41:00,75.4,35.1,29.70,NNW,336,2.0,4.9,23,0.00,,,0.00,meteobridge,2013-05-15 01:41:00,
2013-05-14 19:46:00,75.4,36.1,29.70,NNW,340,2.9,4.9,24,0.00,,,0.00,meteobridge,2013-05-15 01:46:00,
2013-05-14 19:51:00,75.4,36.1,29.70,North,10,2.0,6.9,24,0.00,,,0.00,meteobridge,2013-05-15 01:51:00,
2013-05-14 19:56:00,74.8,37.6,29.70,East,90,4.9,6.9,26,0.00,,,0.00,meteobridge,2013-05-15 01:56:00,
2013-05-14 20:01:00,73.8,38.7,29.70,ESE,110,2.9,4.9,28,0.00,,,0.00,meteobridge,2013-05-15 02:01:00,
2013-05-14 20:06:00,73.0,39.7,29.70,ENE,58,0.0,2.0,30,0.00,,,0.00,meteobridge,2013-05-15 02:06:00,
2013-05-14 20:11:00,73.0,37.0,29.71,ENE,63,2.0,6.9,27,0.00,,,0.00,meteobridge,2013-05-15 02:11:00,
2013-05-14 20:16:00,73.4,36.5,29.71,NNE,17,2.0,6.0,26,0.00,,,0.00,meteobridge,2013-05-15 02:16:00,
2013-05-14 20:21:00,73.4,37.4,29.71,South,178,0.0,4.0,27,0.00,,,0.00,meteobridge,2013-05-15 02:21:00,
2013-05-14 20:26:00,73.4,36.5,29.71,WSW,253,0.0,0.9,26,0.00,,,0.00,meteobridge,2013-05-15 02:26:00,
2013-05-14 20:31:00,73.4,37.4,29.72,ENE,76,0.0,2.0,27,0.00,,,0.00,meteobridge,2013-05-15 02:31:00,
2013-05-14 20:36:00,73.0,39.7,29.72,South,170,0.9,4.9,30,0.00,,,0.00,meteobridge,2013-05-15 02:36:00,
2013-05-14 20:41:00,72.0,41.4,29.73,SE,138,2.0,2.9,33,0.00,,,0.00,meteobridge,2013-05-15 02:41:00,
2013-05-14 20:46:00,70.5,45.7,29.73,SW,232,2.0,6.9,41,0.00,,,0.00,meteobridge,2013-05-15 02:46:00,
2013-05-14 20:51:00,69.3,44.6,29.75,NNW,336,2.9,4.0,41,0.00,,,0.00,meteobridge,2013-05-15 02:51:00,
2013-05-14 20:56:00,68.5,42.6,29.76,SSW,192,0.0,2.9,39,0.01,,,0.01,meteobridge,2013-05-15 02:56:00,
2013-05-14 21:01:00,66.6,48.4,29.76,SW,225,2.9,6.0,52,0.02,,,0.02,meteobridge,2013-05-15 03:01:00,
2013-05-14 21:06:00,64.0,48.0,29.77,SSE,153,4.9,10.1,56,0.05,,,0.05,meteobridge,2013-05-15 03:06:00,
2013-05-14 21:11:00,62.6,50.2,29.77,South,184,0.9,4.9,64,0.05,,,0.05,meteobridge,2013-05-15 03:11:00,
2013-05-14 21:16:00,61.3,51.4,29.77,SW,220,6.0,6.0,70,0.05,,,0.05,meteobridge,2013-05-15 03:16:00,
2013-05-14 21:21:00,61.3,49.8,29.75,SSW,213,2.0,2.9,66,0.05,,,0.05,meteobridge,2013-05-15 03:21:00,
2013-05-14 21:26:00,61.7,49.8,29.75,SSE,167,2.0,4.0,65,0.05,,,0.05,meteobridge,2013-05-15 03:26:00,
2013-05-14 21:31:00,62.1,50.9,29.74,SE,126,2.9,4.9,67,0.05,,,0.05,meteobridge,2013-05-15 03:31:00,
2013-05-14 21:36:00,62.4,50.0,29.74,SSE,159,0.9,4.9,64,0.05,,,0.05,meteobridge,2013-05-15 03:36:00,
2013-05-14 21:41:00,62.8,49.6,29.74,South,179,0.9,2.9,62,0.05,,,0.05,meteobridge,2013-05-15 03:41:00,
2013-05-14 21:46:00,62.8,50.0,29.74,South,179,0.0,0.0,63,0.05,,,0.05,meteobridge,2013-05-15 03:46:00,
2013-05-14 21:52:00,62.2,51.6,29.75,South,179,0.0,0.9,68,0.05,,,0.05,meteobridge,2013-05-15 03:52:00,
2013-05-14 21:57:00,62.4,51.8,29.74,SSE,159,2.0,2.0,68,0.04,,,0.05,meteobridge,2013-05-15 03:57:00,
2013-05-14 22:01:00,62.2,52.3,29.74,SSE,159,0.0,2.0,70,0.03,,,0.05,meteobridge,2013-05-15 04:01:00,
2013-05-14 22:02:00,62.2,52.0,29.74,SSE,159,2.0,2.0,69,0.02,,,0.05,meteobridge,2013-05-15 04:02:00,
2013-05-14 22:07:00,63.0,51.8,29.74,SSE,159,0.0,0.9,67,0.00,,,0.05,meteobridge,2013-05-15 04:07:00,
2013-05-14 22:13:00,63.0,51.1,29.74,SSE,159,2.0,2.9,65,0.00,,,0.05,meteobridge,2013-05-15 04:13:00,
2013-05-14 22:18:00,63.3,51.4,29.74,SSE,158,0.0,2.0,65,0.00,,,0.05,meteobridge,2013-05-15 04:18:00,
2013-05-14 22:23:00,63.5,50.2,29.74,SSE,158,0.0,0.9,62,0.00,,,0.05,meteobridge,2013-05-15 04:23:00,
2013-05-14 22:28:00,63.7,50.0,29.74,SSE,158,0.0,0.9,61,0.00,,,0.05,meteobridge,2013-05-15 04:28:00,
2013-05-14 22:33:00,63.9,50.5,29.74,SSE,158,0.0,0.0,62,0.00,,,0.05,meteobridge,2013-05-15 04:33:00,
2013-05-14 22:38:00,63.9,50.5,29.74,SSE,158,0.0,0.0,62,0.00,,,0.05,meteobridge,2013-05-15 04:38:00,
2013-05-14 22:43:00,63.7,50.4,29.74,SSE,158,0.0,0.0,62,0.00,,,0.05,meteobridge,2013-05-15 04:43:00,
2013-05-14 22:48:00,63.9,51.1,29.73,SSE,158,0.0,0.0,63,0.00,,,0.05,meteobridge,2013-05-15 04:48:00,
2013-05-14 22:53:00,63.7,51.3,29.73,SSE,158,0.0,2.0,64,0.00,,,0.05,meteobridge,2013-05-15 04:53:00,
2013-05-14 22:58:00,64.0,48.6,29.73,SW,227,0.0,0.9,57,0.00,,,0.05,meteobridge,2013-05-15 04:58:00,
2013-05-14 23:04:00,64.4,47.8,29.73,SW,228,0.0,0.0,55,0.00,,,0.05,meteobridge,2013-05-15 05:04:00,
2013-05-14 23:09:00,64.8,49.6,29.73,NNW,338,2.9,2.9,58,0.00,,,0.05,meteobridge,2013-05-15 05:09:00,
2013-05-14 23:14:00,65.7,47.5,29.73,North,5,0.0,0.9,52,0.00,,,0.05,meteobridge,2013-05-15 05:14:00,
2013-05-14 23:19:00,65.5,46.4,29.74,North,5,0.0,0.0,50,0.00,,,0.05,meteobridge,2013-05-15 05:19:00,
2013-05-14 23:24:00,65.1,47.5,29.73,North,5,0.0,0.0,53,0.00,,,0.05,meteobridge,2013-05-15 05:24:00,
2013-05-14 23:29:00,64.8,48.7,29.73,North,5,0.0,0.0,56,0.00,,,0.05,meteobridge,2013-05-15 05:29:00,
2013-05-14 23:34:00,64.9,45.9,29.73,East,96,0.0,2.9,50,0.00,,,0.05,meteobridge,2013-05-15 05:34:00,
2013-05-14 23:40:00,64.8,46.2,29.73,East,96,0.0,0.0,51,0.00,,,0.05,meteobridge,2013-05-15 05:40:00,
2013-05-14 23:45:00,64.6,46.0,29.73,East,96,0.0,0.0,51,0.00,,,0.05,meteobridge,2013-05-15 05:45:00,
2013-05-14 23:50:00,64.6,47.5,29.73,East,96,0.0,0.0,54,0.00,,,0.05,meteobridge,2013-05-15 05:50:00,
2013-05-14 23:55:00,64.0,47.5,29.73,East,96,0.0,0.0,55,0.00,,,0.05,meteobridge,2013-05-15 05:55:00,